createdAt,value
2023-01-17T05:05:30.850Z,7.90
2023-01-17T05:08:33.390Z,7.25
2023-01-17T05:11:35.481Z,7.20
2023-01-17T05:14:40.234Z,7.25
2023-01-17T05:17:42.338Z,6.87
2023-01-17T05:20:45.033Z,6.68
2023-01-17T05:23:47.630Z,6.57
2023-01-17T05:26:54.550Z,6.80
2023-01-17T05:29:56.868Z,6.65
2023-01-17T05:32:59.694Z,6.45
2023-01-17T05:36:01.835Z,6.87
2023-01-17T05:39:04.216Z,7.30
2023-01-17T05:42:06.378Z,6.60
2023-01-17T05:45:09.885Z,6.93
2023-01-17T05:48:11.977Z,6.75
2023-01-17T05:51:14.394Z,7.07
2023-01-17T05:54:16.829Z,7.47
2023-01-17T05:57:19.549Z,7.97
2023-01-17T06:00:23.220Z,6.12
2023-01-17T06:03:25.877Z,6.07
2023-01-17T06:06:27.970Z,5.55
2023-01-17T06:09:30.323Z,5.25
2023-01-17T06:12:32.468Z,4.70
2023-01-17T06:15:36.214Z,5.25
2023-01-17T06:18:38.327Z,4.05
2023-01-17T06:21:40.687Z,4.57
2023-01-17T06:24:42.753Z,3.80
2023-01-17T06:27:45.913Z,3.55
2023-01-17T06:30:48.810Z,3.95
2023-01-17T06:33:51.300Z,4.45
2023-01-17T06:36:56.871Z,3.80
2023-01-17T06:39:59.232Z,4.78
2023-01-17T06:43:02.381Z,4.70
2023-01-17T06:46:05.064Z,4.18
2023-01-17T06:49:07.182Z,4.37
2023-01-17T06:52:09.590Z,4.80
2023-01-17T06:55:11.721Z,5.68
2023-01-17T06:58:14.114Z,5.93
2023-01-17T07:01:18.870Z,5.37
2023-01-17T07:04:21.650Z,6.30
2023-01-17T07:07:24.840Z,5.90
2023-01-17T07:10:27.279Z,5.05
2023-01-17T07:13:31.000Z,6.00
2023-01-17T07:22:52.523Z,4.43
2023-01-17T07:26:00.396Z,4.85
2023-01-17T07:29:06.682Z,5.50
2023-01-17T07:32:10.815Z,4.95
2023-01-17T07:35:13.198Z,5.20
2023-01-17T07:38:20.110Z,5.55
2023-01-17T07:41:22.578Z,5.05
2023-01-17T07:44:24.685Z,6.15
2023-01-17T07:47:27.021Z,5.75
2023-01-17T07:50:29.086Z,5.30
2023-01-17T07:53:33.425Z,4.03
2023-01-17T07:56:35.615Z,2.90
2023-01-17T07:59:38.034Z,2.70
2023-01-17T08:02:40.404Z,2.58
2023-01-17T08:05:52.517Z,1.92
2023-01-17T08:08:56.465Z,2.30
2023-01-17T08:11:59.515Z,1.98
2023-01-17T08:15:01.872Z,1.48
2023-01-17T08:18:04.340Z,1.58
2023-01-17T08:21:13.544Z,1.75
2023-01-17T08:24:15.984Z,1.80
2023-01-17T08:27:18.073Z,1.48
2023-01-17T08:30:20.485Z,1.67
2023-01-17T08:33:22.585Z,1.17
2023-01-17T08:36:25.825Z,1.90
2023-01-17T08:39:28.649Z,1.75
2023-01-17T08:42:37.246Z,1.62
2023-01-17T08:45:43.471Z,1.40
2023-01-17T08:51:48.196Z,1.27
2023-01-17T08:54:51.463Z,1.30
2023-01-17T08:57:53.606Z,1.25
2023-01-17T09:01:01.013Z,1.12
2023-01-17T09:04:03.359Z,1.15
2023-01-17T09:07:07.387Z,1.08
2023-01-17T09:10:10.179Z,1.08
2023-01-17T09:13:12.581Z,1.10
2023-01-17T09:16:14.745Z,1.05
2023-01-17T09:19:17.207Z,1.65
2023-01-17T09:22:19.322Z,1.50
2023-01-17T09:25:22.204Z,1.58
2023-01-17T09:28:25.768Z,2.20
2023-01-17T09:31:28.553Z,1.40
2023-01-17T09:34:30.737Z,0.90
2023-01-17T09:37:33.725Z,1.00
2023-01-17T09:40:38.728Z,0.75
2023-01-17T09:43:52.546Z,1.17
2023-01-17T09:47:01.549Z,0.93
2023-01-17T09:50:25.727Z,1.10
2023-01-17T09:53:31.478Z,1.50
2023-01-17T09:56:46.629Z,1.25
2023-01-17T10:00:03.599Z,1.12
2023-01-17T10:03:22.105Z,1.12
2023-01-17T10:06:49.367Z,1.30
2023-01-17T10:10:18.481Z,1.10
2023-01-17T10:13:39.270Z,1.15
2023-01-17T10:16:55.015Z,1.30
2023-01-17T10:20:26.263Z,1.70
2023-01-17T10:23:37.231Z,1.83
2023-01-17T10:26:39.735Z,1.70
2023-01-17T10:29:45.778Z,1.17
2023-01-17T10:32:49.829Z,1.17
2023-01-17T10:35:56.954Z,1.00
2023-01-17T10:39:04.710Z,1.02
2023-01-17T10:42:17.190Z,1.10
2023-01-17T10:45:28.370Z,1.08
2023-01-17T10:48:39.471Z,2.33
2023-01-17T10:51:49.915Z,1.08
2023-01-17T10:55:10.553Z,1.10
2023-01-17T10:58:13.576Z,1.70
2023-01-17T11:01:20.579Z,1.08
2023-01-17T11:04:41.468Z,1.00
2023-01-17T11:08:06.418Z,1.10
2023-01-17T11:11:09.190Z,1.00
2023-01-17T11:14:21.986Z,1.35
2023-01-17T11:17:26.350Z,1.23
2023-01-17T11:20:36.960Z,1.00
2023-01-17T11:23:42.631Z,1.00
2023-01-17T11:26:49.527Z,1.02
2023-01-17T11:30:18.148Z,1.10
2023-01-17T11:33:46.879Z,1.10
2023-01-17T11:36:50.216Z,1.08
2023-01-17T11:40:06.994Z,0.95
2023-01-17T11:43:12.596Z,1.23
2023-01-17T11:46:17.907Z,1.15
2023-01-17T11:49:25.388Z,1.23
2023-01-17T11:52:37.500Z,1.10
2023-01-17T11:55:40.624Z,1.40
2023-01-17T11:58:43.493Z,1.25
2023-01-17T12:01:58.329Z,1.35
2023-01-17T12:05:23.486Z,1.10
2023-01-17T12:08:37.441Z,1.42
2023-01-17T12:12:15.946Z,4.28
2023-01-17T12:15:33.422Z,1.48
2023-01-17T12:18:51.749Z,1.37
2023-01-17T12:22:41.385Z,1.25
2023-01-17T12:26:00.812Z,1.77
2023-01-17T12:29:33.487Z,2.03
2023-01-17T12:33:12.037Z,1.42
2023-01-17T12:36:43.834Z,4.82
2023-01-17T12:39:55.005Z,11.18
2023-01-17T12:43:06.813Z,12.32
2023-01-17T12:46:24.010Z,7.80
2023-01-17T12:49:49.369Z,5.43
2023-01-17T12:52:57.855Z,2.42
2023-01-17T12:56:10.196Z,2.03
2023-01-17T12:59:24.755Z,3.72
2023-01-17T13:02:52.091Z,2.10
2023-01-17T13:05:57.391Z,4.47
2023-01-17T13:09:03.794Z,27.20
2023-01-17T13:12:12.887Z,12.93
2023-01-17T13:15:28.500Z,8.25
2023-01-17T13:18:33.198Z,4.28
2023-01-17T13:21:35.677Z,3.37
2023-01-17T13:24:56.018Z,2.83
2023-01-17T13:28:22.981Z,4.32
2023-01-17T13:31:44.707Z,4.25
2023-01-17T13:35:05.765Z,2.95
2023-01-17T13:38:17.305Z,3.37
2023-01-17T13:41:34.448Z,3.08
2023-01-17T13:44:37.439Z,3.00
2023-01-17T13:47:41.325Z,2.97
2023-01-17T13:51:10.037Z,3.72
2023-01-17T13:54:31.685Z,2.75
2023-01-17T13:57:43.736Z,2.70
2023-01-17T14:00:49.502Z,2.80
2023-01-17T14:03:52.566Z,3.00
2023-01-17T14:06:59.344Z,3.03
2023-01-17T14:10:15.682Z,2.75
2023-01-17T14:13:36.225Z,2.87
2023-01-17T14:16:39.270Z,3.03
2023-01-17T14:19:48.973Z,3.22
2023-01-17T14:23:01.536Z,2.90
2023-01-17T14:26:27.243Z,3.58
2023-01-17T14:29:47.950Z,2.65
2023-01-17T14:32:59.259Z,2.60
2023-01-17T14:36:05.695Z,2.85
2023-01-17T14:39:22.189Z,3.17
2023-01-17T14:42:27.802Z,3.17
2023-01-17T14:45:32.901Z,3.30
2023-01-17T14:48:39.903Z,4.00
2023-01-17T14:51:42.031Z,3.40
2023-01-17T14:54:52.472Z,3.12
2023-01-17T14:57:58.277Z,3.70
2023-01-17T15:01:11.929Z,3.90
2023-01-17T15:04:31.897Z,4.03
2023-01-17T15:07:36.655Z,3.90
2023-01-17T15:11:00.076Z,3.87
2023-01-17T15:14:05.797Z,4.07
2023-01-17T15:17:24.696Z,4.12
2023-01-17T15:20:27.266Z,3.78
2023-01-17T15:23:34.518Z,4.18
2023-01-17T15:26:40.855Z,3.95
2023-01-17T15:29:45.391Z,3.97
2023-01-17T15:32:49.254Z,3.85
2023-01-17T15:36:02.936Z,3.85
2023-01-17T15:39:22.502Z,3.78
2023-01-17T15:42:28.506Z,4.10
2023-01-17T15:45:32.815Z,5.03
2023-01-17T15:48:44.345Z,4.62
2023-01-17T15:52:08.693Z,4.70
2023-01-17T15:55:14.602Z,4.45
2023-01-17T15:58:29.094Z,4.80
2023-01-17T16:01:32.863Z,3.90
2023-01-17T16:04:42.281Z,4.25
2023-01-17T16:07:44.401Z,4.15
2023-01-17T16:10:46.813Z,4.20
2023-01-17T16:13:49.173Z,4.53
2023-01-17T16:16:53.413Z,4.20
2023-01-17T16:19:55.747Z,4.37
2023-01-17T16:23:00.332Z,4.22
2023-01-17T16:26:02.661Z,4.47
2023-01-17T16:29:05.072Z,4.28
2023-01-17T16:32:08.826Z,4.40
2023-01-17T16:35:20.803Z,4.43
2023-01-17T16:38:23.137Z,4.97
2023-01-17T16:41:25.517Z,4.03
2023-01-17T16:44:27.640Z,3.95
2023-01-17T16:47:29.995Z,4.37
2023-01-17T16:50:32.235Z,4.00
